createdAt,value
2019-01-09T00:01:38.840Z,99863.45
2019-01-09T00:05:01.586Z,99863.86
2019-01-09T00:08:17.670Z,99855.14
2019-01-09T00:11:40.060Z,99858.19
2019-01-09T00:14:56.307Z,99856.45
2019-01-09T00:18:19.080Z,99824.69
2019-01-09T00:21:34.406Z,99854.30
2019-01-09T00:24:56.802Z,99851.67
2019-01-09T00:28:12.686Z,99843.80
2019-01-09T00:31:35.124Z,99862.63
2019-01-09T00:34:56.813Z,99865.76
2019-01-09T00:38:19.523Z,99875.30
2019-01-09T00:41:35.200Z,99882.28
2019-01-09T00:44:57.567Z,99832.13
2019-01-09T00:48:13.525Z,99857.84
2019-01-09T00:51:35.918Z,99864.78
2019-01-09T00:54:39.170Z,99854.77
2019-01-09T00:58:01.575Z,99853.91
2019-01-09T01:01:17.089Z,99858.23
2019-01-09T01:05:18.551Z,99863.89
2019-01-09T01:13:37.187Z,99853.01
2019-01-09T01:17:11.638Z,99877.92
2019-01-09T01:20:48.796Z,99871.36
2019-01-09T01:24:50.109Z,99864.41
2019-01-09T01:28:11.674Z,99877.96
2019-01-09T01:31:46.656Z,99883.19
2019-01-09T01:35:41.637Z,99883.22
2019-01-09T01:39:16.754Z,99887.92
2019-01-09T01:42:38.564Z,99882.33
2019-01-09T01:46:39.896Z,99873.59
2019-01-09T01:50:01.417Z,99890.21
2019-01-09T01:53:36.269Z,99897.19
2019-01-09T01:57:32.866Z,99903.74
2019-01-09T02:01:08.071Z,99905.05
2019-01-09T02:04:42.616Z,99911.55
2019-01-09T02:08:17.195Z,99928.58
2019-01-09T02:12:18.795Z,99927.34
2019-01-09T02:15:55.289Z,99945.64
2019-01-09T02:19:49.345Z,99949.16
2019-01-09T02:23:14.204Z,99954.86
2019-01-09T02:26:53.968Z,99880.19
2019-01-09T02:30:29.318Z,99958.34
2019-01-09T02:33:51.713Z,99958.81
2019-01-09T02:37:14.300Z,99949.59
2019-01-09T02:40:37.367Z,99974.94
2019-01-09T02:43:52.762Z,99977.55
2019-01-09T02:47:08.264Z,99988.03
2019-01-09T02:50:23.987Z,99986.34
2019-01-09T02:53:46.681Z,99969.73
2019-01-09T02:57:02.525Z,99982.83
2019-01-09T03:00:24.915Z,99985.42
2019-01-09T03:03:40.424Z,99986.73
2019-01-09T03:06:56.637Z,99982.80
2019-01-09T03:10:19.030Z,99971.89
2019-01-09T03:13:34.173Z,99980.20
2019-01-09T03:16:49.373Z,99923.89
2019-01-09T03:20:12.221Z,99967.97
2019-01-09T03:23:27.986Z,99960.98
2019-01-09T03:26:43.638Z,99952.27
2019-01-09T03:34:04.077Z,99936.55
2019-01-09T03:37:19.705Z,99947.45
2019-01-09T03:40:42.477Z,99935.67
2019-01-09T03:43:58.037Z,99932.20
2019-01-09T03:47:07.583Z,99949.23
2019-01-09T03:50:29.965Z,99973.22
2019-01-09T03:53:45.263Z,99974.11
2019-01-09T03:57:00.943Z,99963.19
2019-01-09T04:00:23.949Z,99970.17
2019-01-09T04:03:39.549Z,99981.97
2019-01-09T04:07:01.939Z,99971.91
2019-01-09T04:10:17.086Z,99978.47
2019-01-09T04:13:39.832Z,99977.17
2019-01-09T04:16:55.767Z,99974.12
2019-01-09T04:20:18.148Z,99892.05
2019-01-09T04:23:33.290Z,99966.23
2019-01-09T04:26:55.652Z,99965.38
2019-01-09T04:30:12.791Z,99979.80
2019-01-09T04:33:35.190Z,99974.98
2019-01-09T04:36:51.856Z,99978.48
2019-01-09T04:40:07.978Z,99971.47
2019-01-09T04:43:30.469Z,99981.08
2019-01-09T04:46:46.721Z,99978.48
2019-01-09T04:50:03.224Z,99976.75
2019-01-09T04:53:25.695Z,99963.19
2019-01-09T04:56:41.599Z,99965.38
2019-01-09T05:00:04.293Z,99968.02
2019-01-09T05:03:21.841Z,99966.26
2019-01-09T05:06:37.180Z,99987.22
2019-01-09T05:09:59.563Z,99980.22
2019-01-09T05:13:14.641Z,99981.98
2019-01-09T05:16:37.046Z,99976.76
2019-01-09T05:19:53.248Z,99973.24
2019-01-09T05:23:15.641Z,99983.30
2019-01-09T05:26:31.612Z,99983.28
2019-01-09T05:29:54.299Z,99975.41
2019-01-09T05:33:10.283Z,99976.28
2019-01-09T05:36:33.371Z,99961.45
2019-01-09T05:39:48.772Z,99969.77
2019-01-09T05:43:11.171Z,99976.31
2019-01-09T05:46:26.337Z,99888.13
2019-01-09T05:49:49.026Z,99968.88
2019-01-09T05:53:04.349Z,99976.30
2019-01-09T05:56:26.732Z,99965.83
2019-01-09T05:59:42.112Z,99965.81
2019-01-09T06:03:04.498Z,99969.33
2019-01-09T06:06:19.971Z,99962.75
2019-01-09T06:09:35.047Z,99971.05
2019-01-09T06:12:57.762Z,99972.36
2019-01-09T06:16:19.253Z,99978.48
2019-01-09T06:19:41.926Z,99980.23
2019-01-09T06:22:57.114Z,99985.02
2019-01-09T06:26:19.512Z,99985.02
2019-01-09T06:29:34.901Z,99913.39
2019-01-09T06:32:57.886Z,99999.44
2019-01-09T06:36:13.605Z,100001.18
2019-01-09T06:39:36.002Z,99997.67
2019-01-09T06:42:51.325Z,100000.74
2019-01-09T06:46:06.875Z,100007.73
2019-01-09T06:49:23.173Z,99936.10
2019-01-09T06:52:45.927Z,100016.91
2019-01-09T06:56:02.035Z,100019.98
2019-01-09T06:59:25.057Z,100017.80
2019-01-09T07:02:40.959Z,100023.03
2019-01-09T07:06:03.699Z,100021.27
2019-01-09T07:09:19.660Z,100027.82
2019-01-09T07:12:34.775Z,100030.03
2019-01-09T07:15:57.159Z,100037.02
2019-01-09T07:19:13.387Z,100033.93
2019-01-09T07:22:28.507Z,100038.31
2019-01-09T07:25:50.975Z,100038.31
2019-01-09T07:29:06.105Z,100039.19
2019-01-09T07:32:28.561Z,99963.17
2019-01-09T07:35:43.823Z,100027.41
2019-01-09T07:38:59.263Z,100026.95
2019-01-09T07:42:21.648Z,100030.90
2019-01-09T07:45:37.526Z,100027.83
2019-01-09T07:48:53.980Z,100033.49
2019-01-09T07:52:09.139Z,100037.45
2019-01-09T07:55:24.426Z,100045.26
2019-01-09T07:58:40.073Z,100040.05
2019-01-09T08:02:02.429Z,100047.02
2019-01-09T08:05:18.348Z,100049.65
2019-01-09T08:08:40.739Z,100067.98
2019-01-09T08:11:56.164Z,100009.42
2019-01-09T08:15:11.177Z,100069.78
2019-01-09T08:18:33.942Z,100076.34
2019-01-09T08:21:49.980Z,100095.52
2019-01-09T08:25:12.711Z,100090.22
2019-01-09T08:28:29.413Z,100093.72
2019-01-09T08:31:51.815Z,100105.50
2019-01-09T08:35:07.044Z,100123.89
2019-01-09T08:38:29.519Z,100104.19
2019-01-09T08:41:45.390Z,100129.10
2019-01-09T08:45:07.831Z,100130.83
2019-01-09T08:48:22.885Z,100145.25
2019-01-09T08:51:45.749Z,100138.28
2019-01-09T08:55:01.349Z,100142.64
2019-01-09T08:58:24.080Z,100153.13
2019-01-09T09:01:39.870Z,100147.03
2019-01-09T09:05:02.269Z,100152.28
2019-01-09T09:08:18.953Z,100151.02
2019-01-09T09:11:41.403Z,100156.70
2019-01-09T09:14:57.620Z,100079.23
2019-01-09T09:18:20.002Z,100140.94
2019-01-09T09:21:35.928Z,100161.95
2019-01-09T09:24:58.412Z,100160.63
2019-01-09T09:28:13.764Z,100161.09
2019-01-09T09:31:29.176Z,100170.27
2019-01-09T09:34:51.549Z,100168.95
2019-01-09T09:38:06.828Z,100175.08
2019-01-09T09:41:29.230Z,100177.69
2019-01-09T09:44:45.174Z,100179.87
2019-01-09T09:48:00.669Z,100179.00
2019-01-09T09:51:23.120Z,100175.52
2019-01-09T09:54:38.711Z,100182.10
2019-01-09T09:58:05.796Z,100181.62
2019-01-09T10:01:39.078Z,100182.05
2019-01-09T10:05:01.785Z,100196.94
2019-01-09T10:08:17.422Z,100196.52
2019-01-09T10:11:40.412Z,100208.34
2019-01-09T10:14:55.984Z,100206.98
2019-01-09T10:18:18.433Z,100208.75
2019-01-09T10:21:34.314Z,100204.81
2019-01-09T10:24:57.391Z,100205.67
2019-01-09T10:28:13.339Z,100206.14
2019-01-09T10:31:35.739Z,100204.84
2019-01-09T10:34:49.290Z,100203.52
2019-01-09T10:38:05.065Z,100208.75
2019-01-09T10:41:27.776Z,100202.63
2019-01-09T10:44:45.605Z,100206.16
2019-01-09T10:48:01.435Z,100205.70
2019-01-09T10:51:17.342Z,100201.77
2019-01-09T10:54:32.463Z,100112.16
2019-01-09T10:57:55.300Z,100200.06
2019-01-09T11:01:11.293Z,100196.13
2019-01-09T11:04:26.654Z,100202.23
2019-01-09T11:07:49.384Z,100202.65
2019-01-09T11:11:11.768Z,100197.85
2019-01-09T11:14:27.553Z,100193.05
2019-01-09T11:17:50.252Z,100193.91
2019-01-09T11:21:06.051Z,100116.97
2019-01-09T11:24:28.457Z,100116.08
2019-01-09T11:27:44.131Z,100190.88
2019-01-09T11:31:00.047Z,100190.87
2019-01-09T11:34:22.722Z,100186.04
2019-01-09T11:37:38.804Z,100179.50
2019-01-09T11:40:53.822Z,100174.27
2019-01-09T11:44:16.747Z,100174.70
2019-01-09T11:47:32.558Z,100133.16
2019-01-09T11:50:55.247Z,100169.44
2019-01-09T11:54:10.912Z,100077.63
2019-01-09T11:57:34.257Z,100172.95
2019-01-09T12:00:49.249Z,100153.28
2019-01-09T12:04:12.220Z,100172.07
2019-01-09T12:07:27.867Z,100166.38
2019-01-09T12:10:50.628Z,100169.46
2019-01-09T12:14:05.837Z,100181.25
2019-01-09T12:17:28.530Z,100165.52
2019-01-09T12:20:44.494Z,100171.18
2019-01-09T12:23:59.571Z,100166.81
2019-01-09T12:27:22.004Z,100168.13
2019-01-09T12:30:37.490Z,100172.95
2019-01-09T12:34:00.276Z,100171.64
2019-01-09T12:37:15.881Z,100177.77
2019-01-09T12:40:38.252Z,100174.69
2019-01-09T12:43:53.303Z,100178.20
2019-01-09T12:47:09.187Z,100185.63
2019-01-09T12:50:25.939Z,100098.17
2019-01-09T12:53:48.384Z,100182.56
2019-01-09T12:57:03.805Z,100186.06
2019-01-09T13:00:20.437Z,100190.02
2019-01-09T13:03:43.166Z,100203.11
2019-01-09T13:06:58.935Z,100206.61
2019-01-09T13:10:14.996Z,100196.55
2019-01-09T13:13:37.708Z,100200.05
2019-01-09T13:16:52.861Z,100203.10
2019-01-09T13:20:08.975Z,100138.78
2019-01-09T13:23:31.722Z,100218.84
2019-01-09T13:26:46.764Z,100166.78
2019-01-09T13:30:13.211Z,100173.80
2019-01-09T13:33:42.812Z,100217.99
2019-01-09T13:36:58.480Z,100220.16
2019-01-09T13:40:20.844Z,100218.42
2019-01-09T13:43:38.101Z,100221.91
2019-01-09T13:47:00.506Z,100133.53
2019-01-09T13:50:17.923Z,100238.51
2019-01-09T13:53:33.031Z,100166.30
2019-01-09T13:56:55.400Z,100244.64
2019-01-09T14:00:12.267Z,100239.84
2019-01-09T14:03:28.012Z,100238.10
2019-01-09T14:06:50.757Z,100251.66
2019-01-09T14:10:08.133Z,100245.95
2019-01-09T14:13:30.613Z,100263.00
2019-01-09T14:16:46.327Z,100259.09
2019-01-09T14:20:02.289Z,100227.57
2019-01-09T14:23:24.683Z,100255.59
2019-01-09T14:26:40.248Z,100254.72
2019-01-09T14:29:55.443Z,100266.48
2019-01-09T14:33:17.804Z,100271.33
2019-01-09T14:36:32.920Z,100272.61
2019-01-09T14:39:55.391Z,100268.70
2019-01-09T14:43:10.639Z,100281.33
2019-01-09T14:46:33.301Z,100287.08
2019-01-09T14:49:49.258Z,100289.29
2019-01-09T14:53:12.199Z,100293.18
2019-01-09T14:56:27.635Z,100294.92
2019-01-09T14:59:50.000Z,100295.77
2019-01-09T15:03:05.778Z,100297.54
2019-01-09T15:06:28.170Z,100301.88
2019-01-09T15:09:43.837Z,100302.75
2019-01-09T15:13:06.255Z,100309.30
2019-01-09T15:16:21.721Z,100319.34
2019-01-09T15:19:44.095Z,100316.28
2019-01-09T15:22:59.626Z,100321.96
2019-01-09T15:26:21.991Z,100327.63
2019-01-09T15:29:38.143Z,100321.94
2019-01-09T15:33:00.909Z,100334.20
2019-01-09T15:36:16.764Z,100328.06
2019-01-09T15:39:39.160Z,100313.18
2019-01-09T15:42:54.637Z,100338.07
2019-01-09T15:46:17.002Z,100333.72
2019-01-09T15:49:33.115Z,100328.05
2019-01-09T15:52:55.602Z,100330.67
2019-01-09T15:56:11.911Z,100325.41
2019-01-09T15:59:27.884Z,100327.63
2019-01-09T16:02:50.381Z,100332.45
2019-01-09T16:06:05.454Z,100342.02
2019-01-09T16:09:27.842Z,100337.64
2019-01-09T16:12:43.198Z,100342.00
2019-01-09T16:16:05.718Z,100346.37
2019-01-09T16:19:21.761Z,100353.37
2019-01-09T16:22:44.126Z,100353.84
2019-01-09T16:25:59.237Z,100357.73
2019-01-09T16:29:21.916Z,100353.70
2019-01-09T16:32:36.924Z,100359.45
2019-01-09T16:35:59.636Z,100366.06
2019-01-09T16:39:17.387Z,100338.44
2019-01-09T16:42:40.788Z,100372.14
2019-01-09T16:45:56.068Z,100386.06
2019-01-09T16:48:59.477Z,100386.94
2019-01-09T16:52:14.820Z,100385.62
2019-01-09T16:55:37.182Z,100388.31
2019-01-09T16:58:53.324Z,100399.14
2019-01-09T17:02:15.728Z,100392.63
2019-01-09T17:05:30.759Z,100406.70
2019-01-09T17:08:46.184Z,100406.23
2019-01-09T17:12:08.845Z,100411.03
2019-01-09T17:15:32.630Z,100315.80
2019-01-09T17:18:55.715Z,100417.89
2019-01-09T17:22:19.573Z,100420.94
2019-01-09T17:25:42.971Z,100427.89
2019-01-09T17:29:20.228Z,100429.77
2019-01-09T17:32:42.597Z,100438.47
2019-01-09T17:35:58.320Z,100434.52
2019-01-09T17:39:21.292Z,100444.80
2019-01-09T17:42:36.649Z,100438.64
2019-01-09T17:45:59.394Z,100453.15
2019-01-09T17:49:17.608Z,100453.52
2019-01-09T17:52:40.392Z,100464.52
2019-01-09T17:56:07.952Z,100461.96
2019-01-09T17:59:32.610Z,100460.42
2019-01-09T18:03:07.801Z,100427.13
2019-01-09T18:06:31.287Z,100481.44
2019-01-09T18:09:46.448Z,100484.59
2019-01-09T18:13:09.179Z,100486.91
2019-01-09T18:16:24.642Z,100415.73
2019-01-09T18:19:47.006Z,100489.42
2019-01-09T18:23:02.740Z,100492.11
2019-01-09T18:26:25.425Z,100499.50
2019-01-09T18:29:42.896Z,100497.38
2019-01-09T18:33:09.042Z,100503.22
2019-01-09T18:37:32.114Z,100508.09
2019-01-09T18:40:58.987Z,100519.00
2019-01-09T18:44:22.192Z,100524.23
2019-01-09T18:47:58.841Z,100539.95
2019-01-09T18:51:33.353Z,100536.64
2019-01-09T18:54:49.500Z,100539.78
2019-01-09T18:58:11.901Z,100531.48
2019-01-09T19:01:33.973Z,100545.63
2019-01-09T19:04:56.398Z,100550.72
2019-01-09T19:08:12.104Z,100473.52
2019-01-09T19:11:34.822Z,100559.52
2019-01-09T19:14:51.727Z,100566.05
2019-01-09T19:18:14.404Z,100568.59
2019-01-09T19:21:19.603Z,100564.65
2019-01-09T19:24:42.001Z,100569.80
2019-01-09T19:27:57.192Z,100575.13
2019-01-09T19:31:20.009Z,100483.59
2019-01-09T19:34:35.611Z,100575.94
2019-01-09T19:37:51.085Z,100577.38
2019-01-09T19:41:17.214Z,100487.31
2019-01-09T19:44:41.882Z,100568.45
2019-01-09T19:47:56.978Z,100532.08
2019-01-09T19:51:17.434Z,100579.91
2019-01-09T19:54:29.446Z,100583.97
2019-01-09T19:57:52.179Z,100591.03
2019-01-09T20:01:07.826Z,100589.30
2019-01-09T20:04:23.676Z,100587.09
2019-01-09T20:07:46.940Z,100588.27
2019-01-09T20:11:03.064Z,100576.44
2019-01-09T20:14:26.116Z,100584.47
2019-01-09T20:18:03.202Z,100590.14
2019-01-09T20:21:25.986Z,100590.50
2019-01-09T20:24:41.762Z,100585.14
2019-01-09T20:28:04.430Z,100592.50
2019-01-09T20:31:20.545Z,100602.27
2019-01-09T20:34:43.096Z,100605.36
2019-01-09T20:37:58.618Z,100600.00
2019-01-09T20:41:13.997Z,100513.11
2019-01-09T20:44:36.671Z,100571.52
2019-01-09T20:47:52.324Z,100538.11
2019-01-09T20:51:14.717Z,100628.06
2019-01-09T20:54:30.235Z,100625.94
2019-01-09T20:57:46.049Z,100631.36
2019-01-09T21:01:08.430Z,100633.56
2019-01-09T21:04:24.342Z,100637.82
2019-01-09T21:07:40.092Z,100642.41
2019-01-09T21:11:02.892Z,100644.66
2019-01-09T21:14:18.412Z,100640.06
2019-01-09T21:17:41.150Z,100647.06
2019-01-09T21:20:54.696Z,100643.94
2019-01-09T21:24:17.070Z,100648.66
2019-01-09T21:27:41.860Z,100645.46
2019-01-09T21:30:56.891Z,100658.39
2019-01-09T21:34:12.350Z,100593.53
2019-01-09T21:37:35.029Z,100664.09
2019-01-09T21:40:50.659Z,100664.30
2019-01-09T21:44:16.171Z,100669.12
2019-01-09T21:47:50.470Z,100668.39
2019-01-09T21:51:13.039Z,100672.03
2019-01-09T21:54:28.907Z,100591.43
2019-01-09T21:57:51.414Z,100684.48
2019-01-09T22:01:06.532Z,100664.14
2019-01-09T22:04:29.368Z,100692.20
2019-01-09T22:07:45.391Z,100692.98
2019-01-09T22:11:07.861Z,100701.52
2019-01-09T22:14:23.910Z,100715.39
2019-01-09T22:17:46.409Z,100719.77
2019-01-09T22:21:02.094Z,100641.06
2019-01-09T22:24:18.181Z,100717.32
2019-01-09T22:27:40.594Z,100721.47
2019-01-09T22:30:56.747Z,100637.39
2019-01-09T22:34:19.434Z,100722.22
2019-01-09T22:37:35.053Z,100719.97
2019-01-09T22:40:50.182Z,100714.24
2019-01-09T22:44:12.557Z,100718.59
2019-01-09T22:47:15.801Z,100706.75
2019-01-09T22:50:31.605Z,100723.92
2019-01-09T22:53:53.988Z,100723.86
2019-01-09T22:57:09.184Z,100722.68
2019-01-09T23:04:29.036Z,100735.12
2019-01-09T23:07:46.646Z,100731.78
2019-01-09T23:11:09.386Z,100663.48
2019-01-09T23:14:25.355Z,100661.69
2019-01-09T23:17:48.036Z,100732.56
2019-01-09T23:21:03.639Z,100726.45
2019-01-09T23:24:26.117Z,100732.05
2019-01-09T23:27:41.660Z,100741.63
2019-01-09T23:31:04.133Z,100751.15
2019-01-09T23:34:19.141Z,100753.70
2019-01-09T23:37:41.900Z,100658.05
2019-01-09T23:40:58.512Z,100744.77
2019-01-09T23:44:21.742Z,100741.07
2019-01-09T23:47:37.949Z,100738.95
2019-01-09T23:50:40.959Z,100748.53
2019-01-09T23:53:56.698Z,100749.05
2019-01-09T23:57:19.091Z,100752.81
